Bangor, United Kingdom
Current Conditions -  °F | °C
As of 6:20 AM on Sunday 28 Dec 2014 (Local Time) from EGAC Reporting Station
Clear Clear  
Wind Chill: 28°   Ceiling: Unl
Heat Index: 28°   Visibility: 6mi
Dew Point: 27°   Wind: 3mph
Humidity: 93%   Direction: 210°SSW
Pressure: 30.42"   Gusts: NA
Location:  54.65°N, 5.67°W
Report Text: EGAC 280620Z 21003KT CAVOK M02/M03 Q1030
Loading
Personal Weather Stations






























Interactive Weather Map New forecast layout! Learn more

10-Day Weather Forecast

Advertisements
Track Severe Weather on mobile